Fort Worden, Washington
Current Conditions -  °F | °C
As of 11:56 AM on Tuesday 21 Oct 2014 (Local Time) from KNUW Reporting Station
Broken Clouds Broken Clouds  
Wind Chill: 61°   Ceiling: 8000
Heat Index: 61°   Visibility: 10mi
Dew Point: 52°   Wind: 22mph
Humidity: 72%   Direction: 140°SE
Pressure: 29.87"   Gusts: 28mph
Location:  48.026°N, 122.859°W
Report Text: KNUW 211856Z 14019G24KT 10SM SCT013 SCT018 BKN080 BKN150 BKN250 16/11 A2987 RMK AO2 SLP120 T01610111 VISNO E $
Loading
Personal Weather Stations






























Interactive Weather Map
Tropical Storm Tracking
New forecast layout! Learn more

10-Day Weather Forecast

Advertisements
Track Severe Weather on mobile